Nome, Alaska
Current Conditions -  °F | °C
As of 6:53 PM on Thursday 27 Nov 2014 (Local Time) from PAOM Reporting Station
Light Snow Light Snow  
Wind Chill:   Ceiling: 1300
Heat Index: 22°   Visibility: 1mi
Dew Point: 20°   Wind: 25mph
Humidity: 92%   Direction: 90°E
Pressure: 29.93"   Gusts: 33mph
Location:  64.5°N, 165.41°W
Report Text: PAOM 280353Z 09022G29KT 1SM R28/6000VP6000FT -SN BR VV013 M06/M07 A2993 RMK PK WND 09030/0329 SLP135 P0001 T10561067 VIA AUTODIAL
Loading
Personal Weather Stations






























Interactive Weather Map New forecast layout! Learn more

10-Day Weather Forecast

Advertisements
Track Severe Weather on mobile